sensor_id;sensor_type;location;lat;lon;timestamp;P1;durP1;ratioP1;P2;durP2;ratioP2
45887;SDS011;31595;51.418;7.572;2022-08-24T00:00:33;4.95;;;3.58;;
45887;SDS011;31595;51.418;7.572;2022-08-24T00:03:02;6.25;;;3.38;;
45887;SDS011;31595;51.418;7.572;2022-08-24T00:05:29;6.13;;;4.13;;
45887;SDS011;31595;51.418;7.572;2022-08-24T00:07:56;5.35;;;3.80;;
45887;SDS011;31595;51.418;7.572;2022-08-24T00:10:24;6.50;;;4.32;;
45887;SDS011;31595;51.418;7.572;2022-08-24T00:12:52;4.20;;;3.80;;
45887;SDS011;31595;51.418;7.572;2022-08-24T00:15:19;4.93;;;3.67;;
45887;SDS011;31595;51.418;7.572;2022-08-24T00:17:47;5.93;;;4.22;;
45887;SDS011;31595;51.418;7.572;2022-08-24T00:20:19;6.00;;;4.07;;
45887;SDS011;31595;51.418;7.572;2022-08-24T00:22:46;4.90;;;4.07;;
45887;SDS011;31595;51.418;7.572;2022-08-24T00:25:13;5.60;;;3.92;;
45887;SDS011;31595;51.418;7.572;2022-08-24T00:27:41;4.50;;;3.78;;
45887;SDS011;31595;51.418;7.572;2022-08-24T00:30:10;4.65;;;3.50;;
45887;SDS011;31595;51.418;7.572;2022-08-24T00:32:40;5.90;;;3.88;;
45887;SDS011;31595;51.418;7.572;2022-08-24T00:35:08;5.40;;;4.20;;
45887;SDS011;31595;51.418;7.572;2022-08-24T00:37:38;4.70;;;4.03;;
45887;SDS011;31595;51.418;7.572;2022-08-24T00:40:16;5.43;;;3.53;;
45887;SDS011;31595;51.418;7.572;2022-08-24T00:42:46;4.55;;;3.78;;
45887;SDS011;31595;51.418;7.572;2022-08-24T00:45:15;6.25;;;4.30;;
45887;SDS011;31595;51.418;7.572;2022-08-24T00:47:45;5.97;;;3.85;;
45887;SDS011;31595;51.418;7.572;2022-08-24T00:50:18;5.47;;;3.78;;
45887;SDS011;31595;51.418;7.572;2022-08-24T00:52:49;4.75;;;4.20;;
45887;SDS011;31595;51.418;7.572;2022-08-24T00:55:26;5.40;;;3.80;;
45887;SDS011;31595;51.418;7.572;2022-08-24T00:57:58;6.03;;;4.18;;
45887;SDS011;31595;51.418;7.572;2022-08-24T01:00:29;5.43;;;3.85;;
45887;SDS011;31595;51.418;7.572;2022-08-24T01:03:01;7.35;;;4.10;;
45887;SDS011;31595;51.418;7.572;2022-08-24T01:05:32;5.57;;;4.30;;
45887;SDS011;31595;51.418;7.572;2022-08-24T01:08:03;6.05;;;4.22;;
45887;SDS011;31595;51.418;7.572;2022-08-24T01:10:34;7.75;;;4.05;;
45887;SDS011;31595;51.418;7.572;2022-08-24T01:13:05;6.18;;;3.92;;
45887;SDS011;31595;51.418;7.572;2022-08-24T01:15:36;6.80;;;4.00;;
45887;SDS011;31595;51.418;7.572;2022-08-24T01:18:07;8.15;;;4.68;;
45887;SDS011;31595;51.418;7.572;2022-08-24T01:23:34;6.15;;;4.40;;
45887;SDS011;31595;51.418;7.572;2022-08-24T01:26:06;5.70;;;4.22;;
45887;SDS011;31595;51.418;7.572;2022-08-24T01:28:36;5.10;;;4.65;;
45887;SDS011;31595;51.418;7.572;2022-08-24T01:31:05;5.75;;;4.20;;
45887;SDS011;31595;51.418;7.572;2022-08-24T01:33:33;6.60;;;4.50;;
45887;SDS011;31595;51.418;7.572;2022-08-24T01:36:02;6.07;;;4.03;;
45887;SDS011;31595;51.418;7.572;2022-08-24T01:38:36;5.45;;;3.95;;
45887;SDS011;31595;51.418;7.572;2022-08-24T01:41:04;5.03;;;4.07;;
45887;SDS011;31595;51.418;7.572;2022-08-24T01:43:31;6.03;;;4.07;;
45887;SDS011;31595;51.418;7.572;2022-08-24T01:46:02;6.20;;;5.20;;
45887;SDS011;31595;51.418;7.572;2022-08-24T01:48:29;6.30;;;4.25;;
45887;SDS011;31595;51.418;7.572;2022-08-24T01:50:57;6.03;;;4.53;;
45887;SDS011;31595;51.418;7.572;2022-08-24T01:53:24;5.38;;;4.53;;
45887;SDS011;31595;51.418;7.572;2022-08-24T01:55:54;7.43;;;4.72;;
45887;SDS011;31595;51.418;7.572;2022-08-24T01:58:21;7.45;;;4.55;;
45887;SDS011;31595;51.418;7.572;2022-08-24T02:00:49;5.03;;;4.50;;
45887;SDS011;31595;51.418;7.572;2022-08-24T02:03:16;7.78;;;4.78;;
45887;SDS011;31595;51.418;7.572;2022-08-24T02:05:45;5.70;;;4.80;;
45887;SDS011;31595;51.418;7.572;2022-08-24T02:08:13;7.00;;;4.85;;
45887;SDS011;31595;51.418;7.572;2022-08-24T02:10:40;5.18;;;4.57;;
45887;SDS011;31595;51.418;7.572;2022-08-24T02:13:09;6.57;;;4.85;;
45887;SDS011;31595;51.418;7.572;2022-08-24T02:15:37;5.68;;;5.07;;
45887;SDS011;31595;51.418;7.572;2022-08-24T02:18:05;7.10;;;4.97;;
45887;SDS011;31595;51.418;7.572;2022-08-24T02:20:35;6.68;;;5.40;;
45887;SDS011;31595;51.418;7.572;2022-08-24T02:23:03;8.40;;;5.28;;
45887;SDS011;31595;51.418;7.572;2022-08-24T02:25:32;6.80;;;4.95;;
45887;SDS011;31595;51.418;7.572;2022-08-24T02:27:59;7.53;;;4.88;;
45887;SDS011;31595;51.418;7.572;2022-08-24T02:30:30;8.18;;;4.78;;
45887;SDS011;31595;51.418;7.572;2022-08-24T02:32:58;6.82;;;4.70;;
45887;SDS011;31595;51.418;7.572;2022-08-24T02:35:29;7.13;;;4.82;;
45887;SDS011;31595;51.418;7.572;2022-08-24T02:37:57;5.38;;;4.72;;
45887;SDS011;31595;51.418;7.572;2022-08-24T02:40:27;6.07;;;4.97;;
45887;SDS011;31595;51.418;7.572;2022-08-24T02:42:55;6.43;;;5.03;;
45887;SDS011;31595;51.418;7.572;2022-08-24T02:45:23;7.07;;;5.15;;
45887;SDS011;31595;51.418;7.572;2022-08-24T02:47:53;5.85;;;5.05;;
45887;SDS011;31595;51.418;7.572;2022-08-24T02:50:21;5.45;;;4.88;;
45887;SDS011;31595;51.418;7.572;2022-08-24T02:52:48;7.75;;;5.05;;
45887;SDS011;31595;51.418;7.572;2022-08-24T02:55:16;5.63;;;4.88;;
45887;SDS011;31595;51.418;7.572;2022-08-24T02:57:44;5.68;;;5.00;;
45887;SDS011;31595;51.418;7.572;2022-08-24T03:00:13;7.43;;;5.78;;
45887;SDS011;31595;51.418;7.572;2022-08-24T03:05:11;5.90;;;5.30;;
45887;SDS011;31595;51.418;7.572;2022-08-24T03:07:40;7.13;;;5.00;;
45887;SDS011;31595;51.418;7.572;2022-08-24T03:10:08;5.70;;;5.00;;
45887;SDS011;31595;51.418;7.572;2022-08-24T03:12:36;7.25;;;5.53;;
45887;SDS011;31595;51.418;7.572;2022-08-24T03:15:04;5.50;;;4.95;;
45887;SDS011;31595;51.418;7.572;2022-08-24T03:17:36;6.38;;;4.90;;
45887;SDS011;31595;51.418;7.572;2022-08-24T03:20:06;6.95;;;5.45;;
45887;SDS011;31595;51.418;7.572;2022-08-24T03:22:38;5.85;;;5.20;;
45887;SDS011;31595;51.418;7.572;2022-08-24T03:25:06;8.65;;;5.45;;
45887;SDS011;31595;51.418;7.572;2022-08-24T03:27:34;6.63;;;5.72;;
45887;SDS011;31595;51.418;7.572;2022-08-24T03:30:02;7.68;;;6.30;;
45887;SDS011;31595;51.418;7.572;2022-08-24T03:32:30;8.05;;;5.30;;
45887;SDS011;31595;51.418;7.572;2022-08-24T03:34:58;7.47;;;5.70;;
45887;SDS011;31595;51.418;7.572;2022-08-24T03:37:26;6.32;;;5.63;;
45887;SDS011;31595;51.418;7.572;2022-08-24T03:39:55;8.15;;;6.40;;
45887;SDS011;31595;51.418;7.572;2022-08-24T03:42:22;7.53;;;6.57;;
45887;SDS011;31595;51.418;7.572;2022-08-24T03:44:50;6.65;;;5.30;;
45887;SDS011;31595;51.418;7.572;2022-08-24T03:47:17;8.25;;;5.32;;
45887;SDS011;31595;51.418;7.572;2022-08-24T03:49:44;10.23;;;6.15;;
45887;SDS011;31595;51.418;7.572;2022-08-24T03:52:12;7.70;;;5.60;;
45887;SDS011;31595;51.418;7.572;2022-08-24T03:54:39;8.13;;;5.82;;
45887;SDS011;31595;51.418;7.572;2022-08-24T03:57:08;7.18;;;5.97;;
45887;SDS011;31595;51.418;7.572;2022-08-24T03:59:35;9.50;;;6.10;;
45887;SDS011;31595;51.418;7.572;2022-08-24T04:02:02;9.07;;;6.30;;
45887;SDS011;31595;51.418;7.572;2022-08-24T04:04:30;6.72;;;5.93;;
45887;SDS011;31595;51.418;7.572;2022-08-24T04:06:57;6.85;;;5.68;;
45887;SDS011;31595;51.418;7.572;2022-08-24T04:09:25;9.05;;;5.95;;
45887;SDS011;31595;51.418;7.572;2022-08-24T04:11:52;8.13;;;6.30;;
45887;SDS011;31595;51.418;7.572;2022-08-24T04:14:21;8.43;;;6.20;;
45887;SDS011;31595;51.418;7.572;2022-08-24T04:16:48;9.87;;;6.43;;
45887;SDS011;31595;51.418;7.572;2022-08-24T04:19:15;7.63;;;6.00;;
45887;SDS011;31595;51.418;7.572;2022-08-24T04:21:43;9.00;;;6.03;;
45887;SDS011;31595;51.418;7.572;2022-08-24T04:24:11;8.05;;;5.80;;
45887;SDS011;31595;51.418;7.572;2022-08-24T04:26:39;7.93;;;5.88;;
45887;SDS011;31595;51.418;7.572;2022-08-24T04:29:08;6.07;;;5.32;;
45887;SDS011;31595;51.418;7.572;2022-08-24T04:31:38;6.38;;;5.60;;
45887;SDS011;31595;51.418;7.572;2022-08-24T04:34:07;6.82;;;5.60;;
45887;SDS011;31595;51.418;7.572;2022-08-24T04:36:35;7.30;;;5.60;;
45887;SDS011;31595;51.418;7.572;2022-08-24T04:39:03;6.68;;;5.65;;
45887;SDS011;31595;51.418;7.572;2022-08-24T04:41:30;10.57;;;6.47;;
45887;SDS011;31595;51.418;7.572;2022-08-24T04:43:58;8.10;;;5.80;;
45887;SDS011;31595;51.418;7.572;2022-08-24T04:46:25;7.05;;;5.95;;
45887;SDS011;31595;51.418;7.572;2022-08-24T04:48:55;8.32;;;5.85;;
45887;SDS011;31595;51.418;7.572;2022-08-24T04:51:22;7.13;;;5.82;;
45887;SDS011;31595;51.418;7.572;2022-08-24T04:53:50;6.63;;;5.95;;
45887;SDS011;31595;51.418;7.572;2022-08-24T04:56:18;9.25;;;6.75;;
45887;SDS011;31595;51.418;7.572;2022-08-24T04:58:47;7.90;;;6.57;;
45887;SDS011;31595;51.418;7.572;2022-08-24T05:01:16;7.40;;;6.20;;
45887;SDS011;31595;51.418;7.572;2022-08-24T05:03:45;8.77;;;6.63;;
45887;SDS011;31595;51.418;7.572;2022-08-24T05:06:15;7.40;;;6.13;;
45887;SDS011;31595;51.418;7.572;2022-08-24T05:08:44;6.88;;;5.95;;
45887;SDS011;31595;51.418;7.572;2022-08-24T05:11:12;8.23;;;6.03;;
45887;SDS011;31595;51.418;7.572;2022-08-24T05:13:40;7.20;;;5.20;;
45887;SDS011;31595;51.418;7.572;2022-08-24T05:16:07;6.32;;;4.90;;
45887;SDS011;31595;51.418;7.572;2022-08-24T05:18:36;6.75;;;4.90;;
45887;SDS011;31595;51.418;7.572;2022-08-24T05:21:05;6.93;;;4.75;;
45887;SDS011;31595;51.418;7.572;2022-08-24T05:23:34;6.18;;;4.82;;
45887;SDS011;31595;51.418;7.572;2022-08-24T05:26:03;5.60;;;5.10;;
45887;SDS011;31595;51.418;7.572;2022-08-24T05:28:31;7.40;;;5.07;;
45887;SDS011;31595;51.418;7.572;2022-08-24T05:31:07;9.18;;;5.15;;
45887;SDS011;31595;51.418;7.572;2022-08-24T05:33:36;5.00;;;4.50;;
45887;SDS011;31595;51.418;7.572;2022-08-24T05:36:04;7.95;;;5.70;;
45887;SDS011;31595;51.418;7.572;2022-08-24T05:38:32;5.53;;;4.88;;
45887;SDS011;31595;51.418;7.572;2022-08-24T05:41:03;5.72;;;5.13;;
45887;SDS011;31595;51.418;7.572;2022-08-24T05:43:31;8.52;;;5.57;;
45887;SDS011;31595;51.418;7.572;2022-08-24T05:45:58;7.25;;;5.25;;
45887;SDS011;31595;51.418;7.572;2022-08-24T05:48:26;10.20;;;4.93;;
45887;SDS011;31595;51.418;7.572;2022-08-24T05:50:53;5.85;;;5.00;;
45887;SDS011;31595;51.418;7.572;2022-08-24T05:53:21;7.53;;;5.50;;
45887;SDS011;31595;51.418;7.572;2022-08-24T05:55:49;8.73;;;5.82;;
45887;SDS011;31595;51.418;7.572;2022-08-24T05:58:18;11.30;;;6.38;;
45887;SDS011;31595;51.418;7.572;2022-08-24T06:00:46;6.70;;;5.63;;
45887;SDS011;31595;51.418;7.572;2022-08-24T06:03:14;9.07;;;4.97;;
45887;SDS011;31595;51.418;7.572;2022-08-24T06:05:43;8.20;;;5.85;;
45887;SDS011;31595;51.418;7.572;2022-08-24T06:08:13;7.75;;;5.15;;
45887;SDS011;31595;51.418;7.572;2022-08-24T06:10:41;9.02;;;5.60;;
45887;SDS011;31595;51.418;7.572;2022-08-24T06:13:12;9.82;;;6.68;;
45887;SDS011;31595;51.418;7.572;2022-08-24T06:15:41;11.90;;;6.65;;
45887;SDS011;31595;51.418;7.572;2022-08-24T06:18:09;8.38;;;6.05;;
45887;SDS011;31595;51.418;7.572;2022-08-24T06:20:38;9.00;;;5.57;;
45887;SDS011;31595;51.418;7.572;2022-08-24T06:23:07;6.72;;;5.97;;
45887;SDS011;31595;51.418;7.572;2022-08-24T06:25:37;11.80;;;6.72;;
45887;SDS011;31595;51.418;7.572;2022-08-24T06:28:23;8.98;;;6.07;;
45887;SDS011;31595;51.418;7.572;2022-08-24T06:31:00;9.43;;;6.22;;
45887;SDS011;31595;51.418;7.572;2022-08-24T06:33:29;7.55;;;6.10;;
45887;SDS011;31595;51.418;7.572;2022-08-24T06:35:56;6.50;;;5.90;;
45887;SDS011;31595;51.418;7.572;2022-08-24T06:38:23;7.35;;;5.55;;
45887;SDS011;31595;51.418;7.572;2022-08-24T06:40:51;7.60;;;5.90;;
45887;SDS011;31595;51.418;7.572;2022-08-24T06:43:19;5.72;;;5.22;;
45887;SDS011;31595;51.418;7.572;2022-08-24T06:45:46;7.82;;;6.20;;
45887;SDS011;31595;51.418;7.572;2022-08-24T06:48:14;13.45;;;6.22;;
45887;SDS011;31595;51.418;7.572;2022-08-24T06:50:42;14.90;;;6.32;;
45887;SDS011;31595;51.418;7.572;2022-08-24T06:53:09;8.18;;;5.13;;
45887;SDS011;31595;51.418;7.572;2022-08-24T06:58:09;7.10;;;4.60;;
45887;SDS011;31595;51.418;7.572;2022-08-24T07:00:37;6.97;;;4.22;;
45887;SDS011;31595;51.418;7.572;2022-08-24T07:03:04;9.02;;;4.70;;
45887;SDS011;31595;51.418;7.572;2022-08-24T07:05:33;6.93;;;3.42;;
45887;SDS011;31595;51.418;7.572;2022-08-24T07:08:00;6.25;;;3.75;;
45887;SDS011;31595;51.418;7.572;2022-08-24T07:10:28;8.90;;;3.97;;
45887;SDS011;31595;51.418;7.572;2022-08-24T07:12:55;10.13;;;4.43;;
45887;SDS011;31595;51.418;7.572;2022-08-24T07:15:24;6.07;;;4.13;;
45887;SDS011;31595;51.418;7.572;2022-08-24T07:17:52;7.72;;;4.10;;
45887;SDS011;31595;51.418;7.572;2022-08-24T07:20:19;6.13;;;3.80;;
45887;SDS011;31595;51.418;7.572;2022-08-24T07:22:48;8.23;;;3.67;;
45887;SDS011;31595;51.418;7.572;2022-08-24T07:25:15;5.70;;;4.07;;
45887;SDS011;31595;51.418;7.572;2022-08-24T07:27:43;10.68;;;4.18;;
45887;SDS011;31595;51.418;7.572;2022-08-24T07:30:10;5.13;;;3.55;;
45887;SDS011;31595;51.418;7.572;2022-08-24T07:32:38;4.50;;;3.30;;
45887;SDS011;31595;51.418;7.572;2022-08-24T07:35:05;9.93;;;4.10;;
45887;SDS011;31595;51.418;7.572;2022-08-24T07:37:33;9.60;;;3.53;;
45887;SDS011;31595;51.418;7.572;2022-08-24T07:40:02;4.45;;;3.05;;
45887;SDS011;31595;51.418;7.572;2022-08-24T07:42:30;6.03;;;3.42;;
45887;SDS011;31595;51.418;7.572;2022-08-24T07:44:57;4.45;;;2.80;;
45887;SDS011;31595;51.418;7.572;2022-08-24T07:47:25;10.70;;;3.10;;
45887;SDS011;31595;51.418;7.572;2022-08-24T07:49:52;4.97;;;2.67;;
45887;SDS011;31595;51.418;7.572;2022-08-24T07:52:19;4.13;;;2.67;;
45887;SDS011;31595;51.418;7.572;2022-08-24T07:54:47;5.97;;;3.10;;
45887;SDS011;31595;51.418;7.572;2022-08-24T07:57:15;8.70;;;3.30;;
45887;SDS011;31595;51.418;7.572;2022-08-24T07:59:43;6.80;;;2.50;;
45887;SDS011;31595;51.418;7.572;2022-08-24T08:02:11;4.13;;;2.50;;
45887;SDS011;31595;51.418;7.572;2022-08-24T08:04:39;3.88;;;2.72;;
45887;SDS011;31595;51.418;7.572;2022-08-24T08:07:07;5.70;;;2.58;;
45887;SDS011;31595;51.418;7.572;2022-08-24T08:09:35;4.75;;;2.33;;
45887;SDS011;31595;51.418;7.572;2022-08-24T08:12:03;7.15;;;2.58;;
45887;SDS011;31595;51.418;7.572;2022-08-24T08:14:32;5.85;;;2.67;;
45887;SDS011;31595;51.418;7.572;2022-08-24T08:17:00;6.15;;;2.72;;
45887;SDS011;31595;51.418;7.572;2022-08-24T08:19:27;18.48;;;3.50;;
45887;SDS011;31595;51.418;7.572;2022-08-24T08:21:55;5.75;;;2.50;;
45887;SDS011;31595;51.418;7.572;2022-08-24T08:24:39;3.72;;;2.58;;
45887;SDS011;31595;51.418;7.572;2022-08-24T08:27:08;3.92;;;2.80;;
45887;SDS011;31595;51.418;7.572;2022-08-24T08:29:38;6.05;;;2.50;;
45887;SDS011;31595;51.418;7.572;2022-08-24T08:32:07;4.43;;;2.13;;
45887;SDS011;31595;51.418;7.572;2022-08-24T08:34:36;5.30;;;2.30;;
45887;SDS011;31595;51.418;7.572;2022-08-24T08:37:04;4.75;;;2.53;;
45887;SDS011;31595;51.418;7.572;2022-08-24T08:39:32;5.18;;;2.28;;
45887;SDS011;31595;51.418;7.572;2022-08-24T08:42:11;5.13;;;2.33;;
45887;SDS011;31595;51.418;7.572;2022-08-24T08:48:12;3.72;;;2.47;;
45887;SDS011;31595;51.418;7.572;2022-08-24T08:51:06;3.58;;;2.05;;
45887;SDS011;31595;51.418;7.572;2022-08-24T08:54:02;5.40;;;2.78;;
45887;SDS011;31595;51.418;7.572;2022-08-24T08:56:41;3.63;;;2.63;;
45887;SDS011;31595;51.418;7.572;2022-08-24T08:59:24;8.00;;;2.45;;
45887;SDS011;31595;51.418;7.572;2022-08-24T09:02:07;5.88;;;2.60;;
45887;SDS011;31595;51.418;7.572;2022-08-24T09:04:59;6.72;;;2.20;;
45887;SDS011;31595;51.418;7.572;2022-08-24T09:07:55;6.05;;;2.30;;
45887;SDS011;31595;51.418;7.572;2022-08-24T09:10:46;4.75;;;2.40;;
45887;SDS011;31595;51.418;7.572;2022-08-24T09:16:03;3.53;;;2.40;;
45887;SDS011;31595;51.418;7.572;2022-08-24T09:18:57;6.50;;;2.30;;
45887;SDS011;31595;51.418;7.572;2022-08-24T09:21:44;5.05;;;3.13;;
45887;SDS011;31595;51.418;7.572;2022-08-24T09:24:31;3.70;;;2.28;;
45887;SDS011;31595;51.418;7.572;2022-08-24T09:27:21;3.15;;;2.00;;
45887;SDS011;31595;51.418;7.572;2022-08-24T09:30:07;4.00;;;2.20;;
45887;SDS011;31595;51.418;7.572;2022-08-24T09:32:50;3.15;;;2.08;;
45887;SDS011;31595;51.418;7.572;2022-08-24T09:35:30;4.05;;;2.30;;
45887;SDS011;31595;51.418;7.572;2022-08-24T09:38:04;3.77;;;2.20;;
45887;SDS011;31595;51.418;7.572;2022-08-24T09:40:43;6.00;;;2.25;;
45887;SDS011;31595;51.418;7.572;2022-08-24T09:46:46;3.97;;;2.40;;
45887;SDS011;31595;51.418;7.572;2022-08-24T09:49:47;5.60;;;2.25;;
45887;SDS011;31595;51.418;7.572;2022-08-24T09:58:41;4.60;;;2.40;;
45887;SDS011;31595;51.418;7.572;2022-08-24T10:01:20;3.50;;;2.40;;
45887;SDS011;31595;51.418;7.572;2022-08-24T10:03:57;5.40;;;2.17;;
45887;SDS011;31595;51.418;7.572;2022-08-24T10:06:37;3.50;;;2.35;;
45887;SDS011;31595;51.418;7.572;2022-08-24T10:09:22;2.50;;;2.30;;
45887;SDS011;31595;51.418;7.572;2022-08-24T10:12:15;5.10;;;2.90;;
45887;SDS011;31595;51.418;7.572;2022-08-24T10:14:52;5.25;;;2.50;;
45887;SDS011;31595;51.418;7.572;2022-08-24T10:17:29;5.63;;;2.40;;
45887;SDS011;31595;51.418;7.572;2022-08-24T10:20:10;4.00;;;2.53;;
45887;SDS011;31595;51.418;7.572;2022-08-24T10:22:51;3.03;;;2.13;;
45887;SDS011;31595;51.418;7.572;2022-08-24T10:25:45;5.70;;;2.67;;
45887;SDS011;31595;51.418;7.572;2022-08-24T10:31:26;2.60;;;2.38;;
45887;SDS011;31595;51.418;7.572;2022-08-24T10:34:03;3.08;;;2.30;;
45887;SDS011;31595;51.418;7.572;2022-08-24T10:40:02;3.28;;;2.40;;
45887;SDS011;31595;51.418;7.572;2022-08-24T10:46:12;6.70;;;2.83;;
45887;SDS011;31595;51.418;7.572;2022-08-24T10:49:09;4.15;;;2.88;;
45887;SDS011;31595;51.418;7.572;2022-08-24T10:55:19;3.55;;;2.40;;
45887;SDS011;31595;51.418;7.572;2022-08-24T10:57:59;4.00;;;2.50;;
45887;SDS011;31595;51.418;7.572;2022-08-24T11:03:46;5.63;;;2.47;;
45887;SDS011;31595;51.418;7.572;2022-08-24T11:06:17;5.57;;;2.63;;
45887;SDS011;31595;51.418;7.572;2022-08-24T11:08:50;7.13;;;2.40;;
45887;SDS011;31595;51.418;7.572;2022-08-24T11:11:24;4.22;;;2.50;;
45887;SDS011;31595;51.418;7.572;2022-08-24T11:16:27;3.33;;;2.35;;
45887;SDS011;31595;51.418;7.572;2022-08-24T11:19:00;9.43;;;3.05;;
45887;SDS011;31595;51.418;7.572;2022-08-24T11:21:36;5.05;;;2.40;;
45887;SDS011;31595;51.418;7.572;2022-08-24T11:24:07;6.70;;;2.60;;
45887;SDS011;31595;51.418;7.572;2022-08-24T11:26:46;4.70;;;2.38;;
45887;SDS011;31595;51.418;7.572;2022-08-24T11:29:17;3.15;;;2.40;;
45887;SDS011;31595;51.418;7.572;2022-08-24T11:31:46;8.20;;;2.58;;
45887;SDS011;31595;51.418;7.572;2022-08-24T11:34:18;4.88;;;2.65;;
45887;SDS011;31595;51.418;7.572;2022-08-24T11:36:56;7.05;;;2.60;;
45887;SDS011;31595;51.418;7.572;2022-08-24T11:39:25;4.15;;;2.03;;
45887;SDS011;31595;51.418;7.572;2022-08-24T11:41:56;4.20;;;2.00;;
45887;SDS011;31595;51.418;7.572;2022-08-24T11:44:36;5.32;;;2.35;;
45887;SDS011;31595;51.418;7.572;2022-08-24T11:50:00;3.90;;;2.63;;
45887;SDS011;31595;51.418;7.572;2022-08-24T11:55:11;6.63;;;2.53;;
45887;SDS011;31595;51.418;7.572;2022-08-24T11:57:45;3.53;;;2.75;;
45887;SDS011;31595;51.418;7.572;2022-08-24T12:02:51;4.65;;;2.38;;
45887;SDS011;31595;51.418;7.572;2022-08-24T12:05:29;4.28;;;2.53;;
45887;SDS011;31595;51.418;7.572;2022-08-24T12:08:08;5.13;;;2.38;;
45887;SDS011;31595;51.418;7.572;2022-08-24T12:10:46;3.90;;;2.33;;
45887;SDS011;31595;51.418;7.572;2022-08-24T12:13:24;5.13;;;2.38;;
45887;SDS011;31595;51.418;7.572;2022-08-24T12:16:01;5.25;;;2.58;;
45887;SDS011;31595;51.418;7.572;2022-08-24T12:18:41;5.80;;;2.80;;
45887;SDS011;31595;51.418;7.572;2022-08-24T12:21:16;4.20;;;2.50;;
45887;SDS011;31595;51.418;7.572;2022-08-24T12:23:48;4.18;;;2.35;;
45887;SDS011;31595;51.418;7.572;2022-08-24T12:26:19;6.82;;;2.40;;
45887;SDS011;31595;51.418;7.572;2022-08-24T12:28:51;3.13;;;2.45;;
45887;SDS011;31595;51.418;7.572;2022-08-24T12:31:22;4.55;;;2.70;;
45887;SDS011;31595;51.418;7.572;2022-08-24T12:34:03;3.78;;;2.55;;
45887;SDS011;31595;51.418;7.572;2022-08-24T12:36:40;2.92;;;2.25;;
45887;SDS011;31595;51.418;7.572;2022-08-24T12:39:17;4.35;;;2.50;;
45887;SDS011;31595;51.418;7.572;2022-08-24T12:41:50;3.97;;;2.33;;
45887;SDS011;31595;51.418;7.572;2022-08-24T12:44:28;3.83;;;2.15;;
45887;SDS011;31595;51.418;7.572;2022-08-24T12:47:01;5.05;;;2.40;;
45887;SDS011;31595;51.418;7.572;2022-08-24T12:49:29;4.15;;;2.40;;
45887;SDS011;31595;51.418;7.572;2022-08-24T12:57:57;10.65;;;3.28;;
45887;SDS011;31595;51.418;7.572;2022-08-24T13:00:33;5.88;;;3.08;;
45887;SDS011;31595;51.418;7.572;2022-08-24T13:03:04;5.10;;;2.70;;
45887;SDS011;31595;51.418;7.572;2022-08-24T13:05:39;4.97;;;2.70;;
45887;SDS011;31595;51.418;7.572;2022-08-24T13:08:11;3.20;;;2.20;;
45887;SDS011;31595;51.418;7.572;2022-08-24T13:10:44;5.65;;;2.80;;
45887;SDS011;31595;51.418;7.572;2022-08-24T13:13:20;5.60;;;2.70;;
45887;SDS011;31595;51.418;7.572;2022-08-24T13:16:05;2.83;;;1.77;;
45887;SDS011;31595;51.418;7.572;2022-08-24T13:21:40;4.38;;;2.47;;
45887;SDS011;31595;51.418;7.572;2022-08-24T13:33:43;3.60;;;2.20;;
45887;SDS011;31595;51.418;7.572;2022-08-24T13:43:01;5.22;;;2.35;;
45887;SDS011;31595;51.418;7.572;2022-08-24T13:45:51;3.40;;;1.95;;
45887;SDS011;31595;51.418;7.572;2022-08-24T13:48:30;6.28;;;2.70;;
45887;SDS011;31595;51.418;7.572;2022-08-24T13:51:24;3.22;;;2.00;;
45887;SDS011;31595;51.418;7.572;2022-08-24T13:54:09;5.40;;;2.13;;
45887;SDS011;31595;51.418;7.572;2022-08-24T13:57:05;6.45;;;2.40;;
45887;SDS011;31595;51.418;7.572;2022-08-24T14:03:11;3.53;;;2.20;;
45887;SDS011;31595;51.418;7.572;2022-08-24T14:05:57;5.05;;;2.60;;
45887;SDS011;31595;51.418;7.572;2022-08-24T14:08:36;5.20;;;2.30;;
45887;SDS011;31595;51.418;7.572;2022-08-24T14:11:14;4.65;;;2.22;;
45887;SDS011;31595;51.418;7.572;2022-08-24T14:13:59;3.30;;;2.20;;
45887;SDS011;31595;51.418;7.572;2022-08-24T14:16:35;3.60;;;2.17;;
45887;SDS011;31595;51.418;7.572;2022-08-24T14:19:30;4.00;;;2.28;;
45887;SDS011;31595;51.418;7.572;2022-08-24T14:22:13;3.55;;;1.98;;
45887;SDS011;31595;51.418;7.572;2022-08-24T14:24:56;4.90;;;2.55;;
45887;SDS011;31595;51.418;7.572;2022-08-24T14:27:35;6.77;;;2.53;;
45887;SDS011;31595;51.418;7.572;2022-08-24T14:33:15;5.03;;;2.03;;
45887;SDS011;31595;51.418;7.572;2022-08-24T14:36:01;4.10;;;2.00;;
45887;SDS011;31595;51.418;7.572;2022-08-24T14:38:49;5.80;;;2.50;;
45887;SDS011;31595;51.418;7.572;2022-08-24T14:41:28;3.78;;;2.25;;
45887;SDS011;31595;51.418;7.572;2022-08-24T14:44:12;5.38;;;1.95;;
45887;SDS011;31595;51.418;7.572;2022-08-24T14:46:53;9.23;;;2.40;;
45887;SDS011;31595;51.418;7.572;2022-08-24T14:49:28;4.68;;;2.20;;
45887;SDS011;31595;51.418;7.572;2022-08-24T14:52:19;6.95;;;2.13;;
45887;SDS011;31595;51.418;7.572;2022-08-24T14:55:06;4.45;;;2.30;;
45887;SDS011;31595;51.418;7.572;2022-08-24T14:57:43;3.17;;;2.00;;
45887;SDS011;31595;51.418;7.572;2022-08-24T15:00:23;4.43;;;2.20;;
45887;SDS011;31595;51.418;7.572;2022-08-24T15:06:00;3.08;;;2.10;;
45887;SDS011;31595;51.418;7.572;2022-08-24T15:08:36;3.47;;;2.00;;
45887;SDS011;31595;51.418;7.572;2022-08-24T15:11:09;5.65;;;2.00;;
45887;SDS011;31595;51.418;7.572;2022-08-24T15:13:40;6.13;;;2.20;;
45887;SDS011;31595;51.418;7.572;2022-08-24T15:16:12;4.78;;;2.10;;
45887;SDS011;31595;51.418;7.572;2022-08-24T15:18:45;4.85;;;2.30;;
45887;SDS011;31595;51.418;7.572;2022-08-24T15:21:22;7.50;;;2.40;;
45887;SDS011;31595;51.418;7.572;2022-08-24T15:24:01;4.72;;;2.28;;
45887;SDS011;31595;51.418;7.572;2022-08-24T15:26:42;3.55;;;1.90;;
45887;SDS011;31595;51.418;7.572;2022-08-24T15:29:18;3.47;;;2.08;;
45887;SDS011;31595;51.418;7.572;2022-08-24T15:31:57;5.40;;;2.03;;
45887;SDS011;31595;51.418;7.572;2022-08-24T15:34:34;3.38;;;2.10;;
45887;SDS011;31595;51.418;7.572;2022-08-24T15:37:13;4.60;;;1.98;;
45887;SDS011;31595;51.418;7.572;2022-08-24T15:39:43;3.70;;;2.00;;
45887;SDS011;31595;51.418;7.572;2022-08-24T15:42:11;3.13;;;1.80;;
45887;SDS011;31595;51.418;7.572;2022-08-24T15:44:41;4.13;;;2.00;;
45887;SDS011;31595;51.418;7.572;2022-08-24T15:47:17;6.78;;;2.25;;
45887;SDS011;31595;51.418;7.572;2022-08-24T15:49:51;5.57;;;2.00;;
45887;SDS011;31595;51.418;7.572;2022-08-24T15:55:15;4.65;;;2.10;;
45887;SDS011;31595;51.418;7.572;2022-08-24T15:57:56;5.22;;;2.10;;
45887;SDS011;31595;51.418;7.572;2022-08-24T16:00:34;5.57;;;2.20;;
45887;SDS011;31595;51.418;7.572;2022-08-24T16:03:20;7.05;;;2.10;;
45887;SDS011;31595;51.418;7.572;2022-08-24T16:05:51;3.05;;;1.90;;
45887;SDS011;31595;51.418;7.572;2022-08-24T16:08:21;4.57;;;2.42;;
45887;SDS011;31595;51.418;7.572;2022-08-24T16:10:50;3.53;;;2.05;;
45887;SDS011;31595;51.418;7.572;2022-08-24T16:13:26;2.90;;;2.10;;
45887;SDS011;31595;51.418;7.572;2022-08-24T16:15:57;3.25;;;2.00;;
45887;SDS011;31595;51.418;7.572;2022-08-24T16:18:40;3.67;;;2.15;;
45887;SDS011;31595;51.418;7.572;2022-08-24T16:21:12;5.97;;;2.40;;
45887;SDS011;31595;51.418;7.572;2022-08-24T16:23:43;3.78;;;1.92;;
45887;SDS011;31595;51.418;7.572;2022-08-24T16:26:20;3.67;;;1.90;;
45887;SDS011;31595;51.418;7.572;2022-08-24T16:28:50;4.20;;;2.40;;
45887;SDS011;31595;51.418;7.572;2022-08-24T16:34:17;5.75;;;1.90;;
45887;SDS011;31595;51.418;7.572;2022-08-24T16:36:53;6.35;;;2.10;;
45887;SDS011;31595;51.418;7.572;2022-08-24T16:39:20;5.07;;;2.20;;
45887;SDS011;31595;51.418;7.572;2022-08-24T16:41:53;3.22;;;2.05;;
45887;SDS011;31595;51.418;7.572;2022-08-24T16:44:23;4.85;;;1.90;;
45887;SDS011;31595;51.418;7.572;2022-08-24T16:46:55;4.65;;;2.17;;
45887;SDS011;31595;51.418;7.572;2022-08-24T16:49:22;3.20;;;2.13;;
45887;SDS011;31595;51.418;7.572;2022-08-24T16:51:50;6.82;;;2.25;;